Time;durP1;ratioP1;P1;durP2;ratioP2;P2;SDS_P1;SDS_P2;PMS_P1;PMS_P2;Temp;Humidity;BMP_temperature;BMP_pressure;BME280_temperature;BME280_humidity;BME280_pressure;Samples;Min_cycle;Max_cycle;Signal;HPM_P1;HPM_P2
2021/12/30 00:01:23;;;;;;;23.15;4.90;;;;;;;;;;5093655;28;20123;-91
2021/12/30 00:03:49;;;;;;;26.17;4.32;;;;;;;;;;5094656;28;20032;-89
2021/12/30 00:06:17;;;;;;;21.90;4.35;;;;;;;;;;5093404;28;20105;-89
2021/12/30 00:08:44;;;;;;;21.35;3.78;;;;;;;;;;5094319;28;20499;-90
2021/12/30 00:11:10;;;;;;;25.00;4.45;;;;;;;;;;5094883;28;20092;-89
2021/12/30 00:13:36;;;;;;;24.15;4.22;;;;;;;;;;5094288;28;20562;-90
2021/12/30 00:16:02;;;;;;;28.05;4.90;;;;;;;;;;5093181;28;20043;-90
2021/12/30 00:18:28;;;;;;;35.88;4.72;;;;;;;;;;5093067;28;20119;-91
2021/12/30 00:20:54;;;;;;;24.80;5.25;;;;;;;;;;5094431;28;20500;-90
2021/12/30 00:23:21;;;;;;;30.48;4.93;;;;;;;;;;5092945;28;20048;-91
2021/12/30 00:25:48;;;;;;;26.70;4.82;;;;;;;;;;5092864;28;20046;-89
2021/12/30 00:28:26;;;;;;;25.60;5.10;;;;;;;;;;5093347;28;20044;-89
2021/12/30 00:30:52;;;;;;;28.13;4.75;;;;;;;;;;5092954;28;20433;-91
2021/12/30 00:33:18;;;;;;;32.33;5.00;;;;;;;;;;5092927;28;20040;-90
2021/12/30 00:35:45;;;;;;;27.67;5.55;;;;;;;;;;5076047;28;20107;-90
2021/12/30 00:38:11;;;;;;;33.25;5.43;;;;;;;;;;5094478;28;20040;-90
2021/12/30 00:40:38;;;;;;;30.88;4.85;;;;;;;;;;5092593;28;20040;-88
2021/12/30 00:43:05;;;;;;;33.17;6.05;;;;;;;;;;5094046;28;20089;-90
2021/12/30 00:45:32;;;;;;;29.55;4.47;;;;;;;;;;5093059;28;20047;-90
2021/12/30 00:47:58;;;;;;;36.25;6.20;;;;;;;;;;5092742;28;20044;-91
2021/12/30 00:50:24;;;;;;;38.80;5.82;;;;;;;;;;5093849;28;20115;-89
2021/12/30 00:52:51;;;;;;;37.50;5.53;;;;;;;;;;5094006;28;20032;-92
2021/12/30 00:55:17;;;;;;;32.47;5.15;;;;;;;;;;5093859;28;20044;-92
2021/12/30 00:57:43;;;;;;;37.97;5.35;;;;;;;;;;5092943;28;20059;-89
2021/12/30 01:00:11;;;;;;;36.30;5.85;;;;;;;;;;5092442;28;20044;-91
2021/12/30 01:02:37;;;;;;;31.17;4.88;;;;;;;;;;5093617;28;20047;-89
2021/12/30 01:05:03;;;;;;;39.90;5.38;;;;;;;;;;5092107;28;20058;-90
2021/12/30 01:07:29;;;;;;;36.55;5.05;;;;;;;;;;5093605;28;20036;-91
2021/12/30 01:09:55;;;;;;;38.83;5.75;;;;;;;;;;5092458;28;20059;-91
2021/12/30 01:12:22;;;;;;;37.92;6.13;;;;;;;;;;5093789;28;20036;-90
2021/12/30 01:14:48;;;;;;;26.23;4.95;;;;;;;;;;5092311;28;20079;-92
2021/12/30 01:17:24;;;;;;;36.15;5.80;;;;;;;;;;5092470;28;20086;-91
2021/12/30 01:19:51;;;;;;;34.60;5.70;;;;;;;;;;5092413;28;20221;-90
2021/12/30 01:22:17;;;;;;;43.80;6.13;;;;;;;;;;5092456;28;20055;-90
2021/12/30 01:24:44;;;;;;;35.28;6.40;;;;;;;;;;5093003;28;20044;-90
2021/12/30 01:27:10;;;;;;;29.10;5.13;;;;;;;;;;5092219;28;20040;-89
2021/12/30 01:29:36;;;;;;;32.45;5.53;;;;;;;;;;5093289;28;20074;-91
2021/12/30 01:32:02;;;;;;;34.15;5.28;;;;;;;;;;5093630;28;20028;-90
2021/12/30 01:34:28;;;;;;;44.83;6.60;;;;;;;;;;5091767;28;20127;-90
2021/12/30 01:36:55;;;;;;;36.70;6.15;;;;;;;;;;5093538;28;20475;-91
2021/12/30 01:39:22;;;;;;;37.05;6.38;;;;;;;;;;5091936;28;20036;-91
2021/12/30 01:41:49;;;;;;;33.75;5.55;;;;;;;;;;5092305;28;20483;-91
2021/12/30 01:44:15;;;;;;;36.08;6.70;;;;;;;;;;5091877;28;20455;-94
2021/12/30 01:46:42;;;;;;;30.73;6.03;;;;;;;;;;5093727;28;20036;-90
2021/12/30 01:49:08;;;;;;;36.40;6.40;;;;;;;;;;5092170;28;20399;-90
2021/12/30 01:51:34;;;;;;;34.67;5.70;;;;;;;;;;5092065;28;20083;-91
2021/12/30 01:54:00;;;;;;;39.00;6.35;;;;;;;;;;5075096;28;20068;-92
2021/12/30 01:56:27;;;;;;;37.78;5.75;;;;;;;;;;5092137;28;20562;-93
2021/12/30 01:58:54;;;;;;;39.75;6.20;;;;;;;;;;5097205;28;20070;-92
2021/12/30 02:01:20;;;;;;;37.35;5.90;;;;;;;;;;5097209;28;20253;-91
2021/12/30 02:03:46;;;;;;;34.55;6.63;;;;;;;;;;5095703;28;20039;-90
2021/12/30 02:06:12;;;;;;;27.35;5.40;;;;;;;;;;5095608;28;20040;-92
2021/12/30 02:08:38;;;;;;;35.72;5.22;;;;;;;;;;5095877;28;20532;-90
2021/12/30 02:11:05;;;;;;;33.08;5.88;;;;;;;;;;5095397;28;20167;-92
2021/12/30 02:13:30;;;;;;;32.17;6.30;;;;;;;;;;5096940;28;20063;-91
2021/12/30 02:16:01;;;;;;;35.72;5.50;;;;;;;;;;5097029;28;20463;-92
2021/12/30 02:18:27;;;;;;;33.83;5.93;;;;;;;;;;5096880;28;20047;-90
2021/12/30 02:20:53;;;;;;;41.28;5.57;;;;;;;;;;5095402;28;20494;-89
2021/12/30 02:23:20;;;;;;;39.28;5.88;;;;;;;;;;5096680;28;20048;-91
2021/12/30 02:25:48;;;;;;;31.45;6.07;;;;;;;;;;5095235;28;20188;-91
2021/12/30 02:28:15;;;;;;;32.25;6.40;;;;;;;;;;5095642;28;20497;-89
2021/12/30 02:30:41;;;;;;;33.72;5.70;;;;;;;;;;5096242;28;20459;-91
2021/12/30 02:33:07;;;;;;;28.65;6.07;;;;;;;;;;5096559;28;20042;-90
2021/12/30 02:35:34;;;;;;;31.02;6.22;;;;;;;;;;5096379;28;20039;-91
2021/12/30 02:38:00;;;;;;;35.45;5.20;;;;;;;;;;5095321;28;20044;-88
2021/12/30 02:40:27;;;;;;;31.52;6.35;;;;;;;;;;5095244;28;20128;-90
2021/12/30 02:42:53;;;;;;;33.83;6.55;;;;;;;;;;5095195;28;20134;-90
2021/12/30 02:45:19;;;;;;;42.38;7.00;;;;;;;;;;5095002;28;20483;-90
2021/12/30 02:47:45;;;;;;;32.60;5.65;;;;;;;;;;5095239;28;20040;-91
2021/12/30 02:50:11;;;;;;;36.72;6.35;;;;;;;;;;5094820;28;20044;-91
2021/12/30 02:52:37;;;;;;;35.15;6.07;;;;;;;;;;5096000;28;20047;-91
2021/12/30 02:55:04;;;;;;;35.25;6.63;;;;;;;;;;5096037;28;20040;-91
2021/12/30 02:57:30;;;;;;;28.63;5.22;;;;;;;;;;5096203;28;20040;-92
2021/12/30 02:59:56;;;;;;;35.28;6.00;;;;;;;;;;5096097;28;20117;-91
2021/12/30 03:02:21;;;;;;;31.40;6.22;;;;;;;;;;5095881;28;20040;-91
2021/12/30 03:04:48;;;;;;;37.17;6.40;;;;;;;;;;5096000;28;20190;-92
2021/12/30 03:07:18;;;;;;;37.55;6.25;;;;;;;;;;5077997;28;20040;-90
2021/12/30 03:09:44;;;;;;;28.33;6.57;;;;;;;;;;5094191;28;20040;-90
2021/12/30 03:12:10;;;;;;;30.65;6.80;;;;;;;;;;5094234;28;20428;-89
2021/12/30 03:14:42;;;;;;;38.22;7.18;;;;;;;;;;5095779;28;20090;-91
2021/12/30 03:17:09;;;;;;;43.80;6.70;;;;;;;;;;5095720;28;20558;-93
2021/12/30 03:19:35;;;;;;;34.65;6.70;;;;;;;;;;5095894;28;20036;-91
2021/12/30 03:22:01;;;;;;;32.78;6.93;;;;;;;;;;5094525;28;20059;-93
2021/12/30 03:24:27;;;;;;;35.80;6.88;;;;;;;;;;5095153;28;20506;-89
2021/12/30 03:26:53;;;;;;;33.25;7.30;;;;;;;;;;5094194;28;20137;-88
2021/12/30 03:29:19;;;;;;;40.50;7.40;;;;;;;;;;5095692;28;20047;-90
2021/12/30 03:31:46;;;;;;;31.15;7.75;;;;;;;;;;5094051;28;20040;-91
2021/12/30 03:34:12;;;;;;;46.75;7.82;;;;;;;;;;5094452;28;20234;-90
2021/12/30 03:36:38;;;;;;;43.45;7.70;;;;;;;;;;5095338;28;20290;-90
2021/12/30 03:39:04;;;;;;;40.25;7.55;;;;;;;;;;5094023;28;20051;-91
2021/12/30 03:41:31;;;;;;;39.42;8.30;;;;;;;;;;5093730;28;20040;-90
2021/12/30 03:43:59;;;;;;;40.28;8.23;;;;;;;;;;5095401;28;20107;-89
2021/12/30 03:46:25;;;;;;;42.95;9.80;;;;;;;;;;5094865;28;20036;-89
2021/12/30 03:48:51;;;;;;;39.35;8.77;;;;;;;;;;5094101;28;20048;-90
2021/12/30 03:51:22;;;;;;;40.83;10.30;;;;;;;;;;5093486;28;20036;-91
2021/12/30 03:53:49;;;;;;;38.25;9.63;;;;;;;;;;5076980;28;20075;-92
2021/12/30 03:56:16;;;;;;;50.55;10.65;;;;;;;;;;5093494;28;20044;-89
2021/12/30 03:58:43;;;;;;;42.60;9.77;;;;;;;;;;5095132;28;20118;-89
2021/12/30 04:01:10;;;;;;;51.03;10.40;;;;;;;;;;5094769;28;20391;-90
2021/12/30 04:03:37;;;;;;;38.95;10.32;;;;;;;;;;5094894;28;20035;-90
2021/12/30 04:06:03;;;;;;;50.13;10.05;;;;;;;;;;5093227;28;20381;-90
2021/12/30 04:08:29;;;;;;;41.97;10.75;;;;;;;;;;5093424;28;20128;-89
2021/12/30 04:10:56;;;;;;;53.13;10.60;;;;;;;;;;5094587;28;20028;-91
2021/12/30 04:13:22;;;;;;;53.40;10.88;;;;;;;;;;5094328;28;20483;-90
2021/12/30 04:15:48;;;;;;;50.65;11.25;;;;;;;;;;5092947;28;20052;-89
2021/12/30 04:18:14;;;;;;;43.00;10.50;;;;;;;;;;5094465;28;20077;-90
2021/12/30 04:20:40;;;;;;;49.15;11.88;;;;;;;;;;5094329;28;20046;-91
2021/12/30 04:23:07;;;;;;;50.90;11.07;;;;;;;;;;5093171;28;20055;-90
2021/12/30 04:25:34;;;;;;;55.80;10.85;;;;;;;;;;5094403;28;20105;-90
2021/12/30 04:27:59;;;;;;;46.15;10.93;;;;;;;;;;5094395;28;20068;-91
2021/12/30 04:30:26;;;;;;;54.58;11.13;;;;;;;;;;5094387;28;20107;-91
2021/12/30 04:32:52;;;;;;;45.67;10.98;;;;;;;;;;5092787;28;20455;-90
2021/12/30 04:35:18;;;;;;;51.38;10.90;;;;;;;;;;5094501;28;20036;-91
2021/12/30 04:37:44;;;;;;;45.63;10.90;;;;;;;;;;5094161;28;20115;-89
2021/12/30 04:40:11;;;;;;;46.55;10.60;;;;;;;;;;5092992;28;20505;-91
2021/12/30 04:42:37;;;;;;;52.88;10.10;;;;;;;;;;5092545;28;20099;-92
2021/12/30 04:45:03;;;;;;;50.47;10.15;;;;;;;;;;5093067;28;20048;-91
2021/12/30 04:47:29;;;;;;;50.38;10.75;;;;;;;;;;5092932;28;20433;-91
2021/12/30 04:49:57;;;;;;;55.47;9.73;;;;;;;;;;5092554;28;20040;-92
2021/12/30 04:52:23;;;;;;;47.03;10.52;;;;;;;;;;5092543;28;20051;-91
2021/12/30 04:54:49;;;;;;;58.22;11.00;;;;;;;;;;5093796;28;20044;-91
2021/12/30 04:57:16;;;;;;;47.42;11.20;;;;;;;;;;5093454;28;20119;-92
2021/12/30 04:59:41;;;;;;;53.85;11.48;;;;;;;;;;5093908;28;20455;-91
2021/12/30 05:02:07;;;;;;;56.40;12.60;;;;;;;;;;5075360;28;20095;-91
2021/12/30 05:04:34;;;;;;;52.40;12.95;;;;;;;;;;5093500;28;20364;-90
2021/12/30 05:07:00;;;;;;;49.92;12.15;;;;;;;;;;5075560;28;20078;-91
2021/12/30 05:09:26;;;;;;;57.90;13.10;;;;;;;;;;5092749;28;20044;-89
2021/12/30 05:11:52;;;;;;;57.63;12.80;;;;;;;;;;5093491;28;20047;-90
2021/12/30 05:14:18;;;;;;;58.20;13.77;;;;;;;;;;5092320;28;20036;-90
2021/12/30 05:16:44;;;;;;;60.13;13.90;;;;;;;;;;5092350;28;20052;-91
2021/12/30 05:19:10;;;;;;;55.08;13.77;;;;;;;;;;5093715;28;20399;-90
2021/12/30 05:21:37;;;;;;;52.05;13.80;;;;;;;;;;5091954;28;20040;-92
2021/12/30 05:24:04;;;;;;;45.63;12.40;;;;;;;;;;5093206;28;20044;-90
2021/12/30 05:26:30;;;;;;;47.25;12.45;;;;;;;;;;5091726;28;20044;-90
2021/12/30 05:28:57;;;;;;;45.38;12.50;;;;;;;;;;5093539;28;20051;-91
2021/12/30 05:31:23;;;;;;;49.83;12.63;;;;;;;;;;5091684;28;20040;-91
2021/12/30 05:33:49;;;;;;;45.55;11.32;;;;;;;;;;5093082;28;20432;-89
2021/12/30 05:36:15;;;;;;;45.90;11.88;;;;;;;;;;5092088;28;20072;-89
2021/12/30 05:38:41;;;;;;;45.63;10.95;;;;;;;;;;5093205;28;20075;-89
2021/12/30 05:41:07;;;;;;;37.65;9.93;;;;;;;;;;5091993;28;20066;-90
2021/12/30 05:43:33;;;;;;;35.25;9.45;;;;;;;;;;5091880;28;20053;-90
2021/12/30 05:45:59;;;;;;;37.38;9.45;;;;;;;;;;5074992;28;20044;-90
2021/12/30 05:48:25;;;;;;;31.05;9.07;;;;;;;;;;5091817;28;20044;-89
2021/12/30 05:50:51;;;;;;;31.70;9.75;;;;;;;;;;5092102;28;20059;-90
2021/12/30 05:53:17;;;;;;;36.22;8.32;;;;;;;;;;5092838;28;20161;-92
2021/12/30 05:55:43;;;;;;;39.47;9.23;;;;;;;;;;5092032;28;20083;-94
2021/12/30 05:58:09;;;;;;;26.20;8.40;;;;;;;;;;5092035;28;20054;-91
2021/12/30 06:00:35;;;;;;;31.35;9.38;;;;;;;;;;5093135;28;20048;-91
2021/12/30 06:03:01;;;;;;;23.45;8.25;;;;;;;;;;5093269;28;20052;-93
2021/12/30 06:05:27;;;;;;;22.35;7.75;;;;;;;;;;5092150;28;20044;-91
2021/12/30 06:07:53;;;;;;;22.70;7.90;;;;;;;;;;5075148;28;20040;-91
2021/12/30 06:10:19;;;;;;;24.45;8.43;;;;;;;;;;5092174;28;20036;-92
2021/12/30 06:12:46;;;;;;;21.48;8.60;;;;;;;;;;5091780;28;21721;-92
2021/12/30 06:15:12;;;;;;;20.95;8.23;;;;;;;;;;5075451;28;20044;-93
2021/12/30 06:17:38;;;;;;;24.40;8.27;;;;;;;;;;5093349;28;20067;-92
2021/12/30 06:20:09;;;;;;;24.38;8.77;;;;;;;;;;5092536;28;20434;-94
2021/12/30 06:22:35;;;;;;;27.13;9.55;;;;;;;;;;5091853;28;20036;-91
2021/12/30 06:25:02;;;;;;;20.30;8.35;;;;;;;;;;5092040;28;20052;-94
2021/12/30 06:27:27;;;;;;;20.13;8.98;;;;;;;;;;5075042;28;20117;-93
2021/12/30 06:29:53;;;;;;;26.95;9.90;;;;;;;;;;5093282;28;20515;-91
2021/12/30 06:32:19;;;;;;;29.77;10.57;;;;;;;;;;5092080;28;20047;-92
2021/12/30 06:34:45;;;;;;;32.22;11.65;;;;;;;;;;5091751;28;20044;-92
2021/12/30 06:37:12;;;;;;;34.38;12.05;;;;;;;;;;5091645;28;20040;-92
2021/12/30 06:39:38;;;;;;;39.50;12.18;;;;;;;;;;5092062;28;20130;-94
2021/12/30 06:42:04;;;;;;;31.77;13.13;;;;;;;;;;5093192;28;20032;-92
2021/12/30 06:44:30;;;;;;;32.13;12.25;;;;;;;;;;5094162;28;20491;-91
2021/12/30 06:46:59;;;;;;;41.33;13.30;;;;;;;;;;5095470;28;20082;-91
2021/12/30 06:49:25;;;;;;;45.70;15.05;;;;;;;;;;5078564;28;20040;-95
2021/12/30 06:51:51;;;;;;;46.95;15.27;;;;;;;;;;5095782;28;20526;-94
2021/12/30 06:54:18;;;;;;;49.97;15.43;;;;;;;;;;5095258;28;20043;-91
2021/12/30 06:56:44;;;;;;;48.78;15.88;;;;;;;;;;5095503;28;20040;-92
2021/12/30 06:59:14;;;;;;;49.15;15.40;;;;;;;;;;5096397;28;20475;-93
2021/12/30 07:01:40;;;;;;;45.85;14.88;;;;;;;;;;5095354;28;20044;-92
2021/12/30 07:04:06;;;;;;;45.58;14.15;;;;;;;;;;5095231;28;20044;-90
2021/12/30 07:06:32;;;;;;;49.75;14.48;;;;;;;;;;5095376;28;20376;-91
2021/12/30 07:08:58;;;;;;;47.65;15.13;;;;;;;;;;5096525;28;20040;-91
2021/12/30 07:11:24;;;;;;;43.65;14.38;;;;;;;;;;5095265;28;20037;-90
2021/12/30 07:13:50;;;;;;;50.10;14.00;;;;;;;;;;5094961;28;20043;-91
2021/12/30 07:16:16;;;;;;;43.08;13.18;;;;;;;;;;5095521;28;20048;-91
2021/12/30 07:18:42;;;;;;;30.85;11.93;;;;;;;;;;5094874;28;20050;-91
2021/12/30 07:21:08;;;;;;;36.88;12.82;;;;;;;;;;5095146;28;20499;-92
2021/12/30 07:23:34;;;;;;;33.13;11.50;;;;;;;;;;5095863;28;20117;-94
2021/12/30 07:26:00;;;;;;;33.50;11.30;;;;;;;;;;5096001;28;20452;-91
2021/12/30 07:28:26;;;;;;;26.95;9.95;;;;;;;;;;5094775;28;20036;-90
2021/12/30 07:30:52;;;;;;;29.55;11.02;;;;;;;;;;5095102;28;20368;-94
2021/12/30 07:33:18;;;;;;;25.17;10.00;;;;;;;;;;5096450;28;20367;-89
2021/12/30 07:35:44;;;;;;;30.83;10.27;;;;;;;;;;5086461;28;20056;-92
2021/12/30 07:38:10;;;;;;;22.88;9.15;;;;;;;;;;5083374;28;20228;-92
2021/12/30 07:40:36;;;;;;;25.35;9.55;;;;;;;;;;5080390;28;20056;-86
2021/12/30 07:43:02;;;;;;;25.67;7.93;;;;;;;;;;5085127;28;20494;-89
2021/12/30 07:45:28;;;;;;;21.80;7.47;;;;;;;;;;5081370;28;20051;-91
2021/12/30 07:47:54;;;;;;;18.92;6.90;;;;;;;;;;5095566;28;20058;-91
2021/12/30 07:50:21;;;;;;;19.88;6.85;;;;;;;;;;5091382;28;20421;-92
2021/12/30 07:52:47;;;;;;;19.27;7.13;;;;;;;;;;5080674;28;20074;-91
2021/12/30 07:55:14;;;;;;;18.00;6.82;;;;;;;;;;5081021;28;20113;-89
2021/12/30 07:57:40;;;;;;;15.30;5.55;;;;;;;;;;5081881;28;20044;-87
2021/12/30 08:00:09;;;;;;;18.88;6.60;;;;;;;;;;5083520;28;20479;-93
2021/12/30 08:02:35;;;;;;;18.55;5.93;;;;;;;;;;5082472;28;20055;-89
2021/12/30 08:05:01;;;;;;;14.73;5.72;;;;;;;;;;5081786;28;20040;-87
2021/12/30 08:07:27;;;;;;;13.43;4.82;;;;;;;;;;5085569;28;20131;-91
2021/12/30 08:09:54;;;;;;;15.02;4.22;;;;;;;;;;5083936;28;20119;-91
2021/12/30 08:12:20;;;;;;;9.35;3.63;;;;;;;;;;5084660;28;20052;-90
2021/12/30 08:14:46;;;;;;;10.07;3.92;;;;;;;;;;5082466;28;20041;-92
2021/12/30 08:17:12;;;;;;;10.30;3.10;;;;;;;;;;5082424;28;20043;-91
2021/12/30 08:19:38;;;;;;;7.53;2.88;;;;;;;;;;5087562;28;20039;-92
2021/12/30 08:22:04;;;;;;;6.88;2.25;;;;;;;;;;5083365;28;20122;-92
2021/12/30 08:24:30;;;;;;;6.00;2.13;;;;;;;;;;5081273;28;20056;-91
2021/12/30 08:26:59;;;;;;;5.30;1.90;;;;;;;;;;5082107;28;20049;-90
2021/12/30 08:29:25;;;;;;;6.03;2.00;;;;;;;;;;5082010;28;20072;-91
2021/12/30 08:31:51;;;;;;;4.68;1.48;;;;;;;;;;5083751;28;20047;-91
2021/12/30 08:34:17;;;;;;;4.25;1.40;;;;;;;;;;5082869;28;20040;-90
2021/12/30 08:36:43;;;;;;;4.65;1.25;;;;;;;;;;5083465;28;20044;-91
2021/12/30 08:39:09;;;;;;;4.82;1.38;;;;;;;;;;5089969;28;20498;-91
2021/12/30 08:41:35;;;;;;;3.65;1.10;;;;;;;;;;5089480;28;20049;-92
2021/12/30 08:44:01;;;;;;;4.32;1.10;;;;;;;;;;5065517;28;20102;-91
2021/12/30 08:46:27;;;;;;;2.20;0.80;;;;;;;;;;5079386;28;20041;-91
2021/12/30 08:48:53;;;;;;;3.53;0.70;;;;;;;;;;5094662;28;20047;-93
2021/12/30 08:51:19;;;;;;;2.67;0.85;;;;;;;;;;5093175;28;20040;-91
2021/12/30 08:53:45;;;;;;;3.05;0.85;;;;;;;;;;5093699;28;20387;-90
2021/12/30 08:56:12;;;;;;;5.32;1.40;;;;;;;;;;5092923;28;20048;-91
2021/12/30 08:58:38;;;;;;;4.93;1.42;;;;;;;;;;5092987;28;20122;-90
2021/12/30 09:01:04;;;;;;;5.93;1.95;;;;;;;;;;5094182;28;20150;-92
2021/12/30 09:03:30;;;;;;;5.75;2.00;;;;;;;;;;5093014;28;20394;-92
2021/12/30 09:05:56;;;;;;;7.82;2.40;;;;;;;;;;5093337;28;20083;-90
2021/12/30 09:08:22;;;;;;;5.82;2.95;;;;;;;;;;5093081;28;20089;-90
2021/12/30 09:10:50;;;;;;;11.30;3.13;;;;;;;;;;5092535;28;20044;-90
2021/12/30 09:13:16;;;;;;;9.82;3.40;;;;;;;;;;5092598;28;20094;-90
2021/12/30 09:15:42;;;;;;;12.55;4.90;;;;;;;;;;5092658;28;20044;-91
2021/12/30 09:18:08;;;;;;;10.23;4.85;;;;;;;;;;5077294;28;20036;-85
2021/12/30 09:20:38;;;;;;;13.23;5.10;;;;;;;;;;5093352;28;20062;-94
2021/12/30 09:23:04;;;;;;;11.13;5.32;;;;;;;;;;5094265;28;20151;-92
2021/12/30 09:25:30;;;;;;;17.83;5.82;;;;;;;;;;5094545;28;20056;-90
2021/12/30 09:27:57;;;;;;;12.32;4.57;;;;;;;;;;5099187;28;20050;-89
2021/12/30 09:30:24;;;;;;;8.18;4.68;;;;;;;;;;5109807;28;20126;-92
2021/12/30 09:32:51;;;;;;;13.93;4.18;;;;;;;;;;5094552;28;20044;-91
2021/12/30 09:35:17;;;;;;;10.88;3.78;;;;;;;;;;5092361;28;20043;-90
2021/12/30 09:37:44;;;;;;;14.48;3.67;;;;;;;;;;5092135;28;20040;-92
2021/12/30 09:40:13;;;;;;;9.40;3.45;;;;;;;;;;5092485;28;20156;-91
2021/12/30 09:42:40;;;;;;;11.70;3.70;;;;;;;;;;5075794;28;20043;-91
2021/12/30 09:45:06;;;;;;;7.60;3.13;;;;;;;;;;5093252;28;20181;-90
2021/12/30 09:47:33;;;;;;;9.95;2.90;;;;;;;;;;5095479;28;20058;-93
2021/12/30 09:49:59;;;;;;;11.90;3.35;;;;;;;;;;5093553;28;20059;-92
2021/12/30 09:52:26;;;;;;;13.35;3.72;;;;;;;;;;5096118;28;20050;-92
2021/12/30 09:54:52;;;;;;;12.32;4.55;;;;;;;;;;5095333;28;20051;-92
2021/12/30 09:57:18;;;;;;;13.38;4.80;;;;;;;;;;5097729;28;20076;-92
2021/12/30 09:59:44;;;;;;;14.00;4.93;;;;;;;;;;5101292;28;20039;-91
2021/12/30 10:02:10;;;;;;;17.10;5.18;;;;;;;;;;5101680;28;20071;-92
2021/12/30 10:04:36;;;;;;;15.45;5.70;;;;;;;;;;5099278;28;20414;-91
2021/12/30 10:07:03;;;;;;;15.88;6.22;;;;;;;;;;5102100;28;20070;-93
2021/12/30 10:09:59;;;;;;;14.90;6.65;;;;;;;;;;5097560;28;20066;-92
2021/12/30 10:12:44;;;;;;;11.10;5.65;;;;;;;;;;5095388;28;20068;-93
2021/12/30 10:15:10;;;;;;;16.17;6.00;;;;;;;;;;5095051;28;20123;-92
2021/12/30 10:17:36;;;;;;;17.23;6.63;;;;;;;;;;5096582;28;20048;-92
2021/12/30 10:20:16;;;;;;;17.10;5.57;;;;;;;;;;5100376;28;20101;-92
2021/12/30 10:22:42;;;;;;;15.85;5.45;;;;;;;;;;5100748;28;20372;-92
2021/12/30 10:25:26;;;;;;;17.75;5.57;;;;;;;;;;5099541;28;20044;-91
2021/12/30 10:27:53;;;;;;;17.15;5.25;;;;;;;;;;5099142;28;20105;-92
2021/12/30 10:30:35;;;;;;;16.83;5.60;;;;;;;;;;5098860;28;20040;-91
2021/12/30 10:33:14;;;;;;;18.70;5.50;;;;;;;;;;5099770;28;20036;-92
2021/12/30 10:35:40;;;;;;;15.45;5.80;;;;;;;;;;5097259;28;20531;-93
2021/12/30 10:38:09;;;;;;;17.33;5.32;;;;;;;;;;5096318;28;20043;-93
2021/12/30 10:40:36;;;;;;;21.50;5.63;;;;;;;;;;5095693;28;20048;-91
2021/12/30 10:43:17;;;;;;;21.58;6.15;;;;;;;;;;5097447;28;20041;-92
2021/12/30 10:45:43;;;;;;;17.65;6.03;;;;;;;;;;5096810;28;20495;-92
2021/12/30 10:48:09;;;;;;;22.33;5.65;;;;;;;;;;5095710;28;20036;-92
2021/12/30 10:50:35;;;;;;;18.48;5.25;;;;;;;;;;5095082;28;20036;-91
2021/12/30 10:53:02;;;;;;;24.17;5.65;;;;;;;;;;5096971;28;20379;-93
2021/12/30 10:55:32;;;;;;;23.50;6.50;;;;;;;;;;5095277;28;20453;-91
2021/12/30 10:57:59;;;;;;;20.27;6.43;;;;;;;;;;5096663;28;20051;-91
2021/12/30 11:00:27;;;;;;;24.85;6.97;;;;;;;;;;5095647;28;20402;-91
2021/12/30 11:02:53;;;;;;;23.83;6.10;;;;;;;;;;5095453;28;20498;-92
2021/12/30 11:05:19;;;;;;;24.38;5.75;;;;;;;;;;5095162;28;20070;-92
2021/12/30 11:07:51;;;;;;;22.83;6.43;;;;;;;;;;5095601;28;20044;-92
2021/12/30 11:10:28;;;;;;;23.85;6.65;;;;;;;;;;5079822;28;20044;-92
2021/12/30 11:12:54;;;;;;;27.20;6.43;;;;;;;;;;5096330;28;20111;-91
2021/12/30 11:15:27;;;;;;;27.70;6.75;;;;;;;;;;5078138;28;20082;-91
2021/12/30 11:18:10;;;;;;;25.50;7.03;;;;;;;;;;5096148;28;20511;-93
2021/12/30 11:20:43;;;;;;;30.30;7.00;;;;;;;;;;5096541;28;20044;-93
2021/12/30 11:23:09;;;;;;;28.08;7.55;;;;;;;;;;5078490;28;20223;-94
2021/12/30 11:25:35;;;;;;;29.80;6.88;;;;;;;;;;5095155;28;20063;-92
2021/12/30 11:28:02;;;;;;;24.73;6.18;;;;;;;;;;5094749;28;20040;-93
2021/12/30 11:30:28;;;;;;;25.48;7.07;;;;;;;;;;5095162;28;20046;-92
2021/12/30 11:32:54;;;;;;;26.17;6.05;;;;;;;;;;5094978;28;20052;-92
2021/12/30 11:35:22;;;;;;;31.23;6.60;;;;;;;;;;5096002;28;20047;-92
2021/12/30 11:37:48;;;;;;;32.72;6.50;;;;;;;;;;5096156;28;20421;-93
2021/12/30 11:40:21;;;;;;;38.47;8.15;;;;;;;;;;5095675;28;20123;-94
2021/12/30 11:42:56;;;;;;;32.65;6.97;;;;;;;;;;5094759;28;20047;-93
2021/12/30 11:45:30;;;;;;;30.50;7.97;;;;;;;;;;5095859;28;20097;-93
2021/12/30 11:47:57;;;;;;;40.15;7.72;;;;;;;;;;5094923;28;20047;-93
2021/12/30 11:50:26;;;;;;;33.15;7.57;;;;;;;;;;5095800;28;20375;-93
2021/12/30 11:52:52;;;;;;;32.67;8.25;;;;;;;;;;5095688;28;20028;-93
2021/12/30 11:55:36;;;;;;;42.25;7.75;;;;;;;;;;5094968;28;20089;-91
2021/12/30 11:58:21;;;;;;;34.35;6.93;;;;;;;;;;5095059;28;20040;-92
2021/12/30 12:00:49;;;;;;;36.10;7.32;;;;;;;;;;5094658;28;20044;-91
2021/12/30 12:03:32;;;;;;;38.30;7.05;;;;;;;;;;5096153;28;20122;-92
2021/12/30 12:05:58;;;;;;;32.35;7.45;;;;;;;;;;5094680;28;20039;-93
2021/12/30 12:08:28;;;;;;;32.13;7.47;;;;;;;;;;5096191;28;20039;-93
2021/12/30 12:11:10;;;;;;;39.00;7.72;;;;;;;;;;5095604;28;20040;-92
2021/12/30 12:13:37;;;;;;;29.17;6.38;;;;;;;;;;5097306;28;20040;-92
2021/12/30 12:16:03;;;;;;;31.15;6.32;;;;;;;;;;5097616;28;20043;-93
2021/12/30 12:18:29;;;;;;;36.65;7.15;;;;;;;;;;5095794;28;20505;-94
2021/12/30 12:20:57;;;;;;;32.60;7.05;;;;;;;;;;5094075;28;20050;-90
2021/12/30 12:23:49;;;;;;;32.58;7.45;;;;;;;;;;5093897;28;20071;-93
2021/12/30 12:26:18;;;;;;;29.67;6.80;;;;;;;;;;5095002;28;20048;-93
2021/12/30 12:28:48;;;;;;;29.90;6.80;;;;;;;;;;5095336;28;20108;-92
2021/12/30 12:31:14;;;;;;;31.85;6.63;;;;;;;;;;5094577;28;20044;-93
2021/12/30 12:33:42;;;;;;;30.40;6.57;;;;;;;;;;5095861;28;20039;-92
2021/12/30 12:36:15;;;;;;;32.65;6.80;;;;;;;;;;5095207;28;20610;-91
2021/12/30 12:38:53;;;;;;;32.17;6.50;;;;;;;;;;5095221;28;20391;-91
2021/12/30 12:41:21;;;;;;;28.75;6.75;;;;;;;;;;5094349;28;20123;-92
2021/12/30 12:43:50;;;;;;;26.67;7.15;;;;;;;;;;5096457;28;20054;-93
2021/12/30 12:46:16;;;;;;;24.15;6.57;;;;;;;;;;5095462;28;20055;-93
2021/12/30 12:48:42;;;;;;;32.38;6.60;;;;;;;;;;5096779;28;20375;-93
2021/12/30 12:51:15;;;;;;;33.00;7.15;;;;;;;;;;5096060;28;20085;-91
2021/12/30 12:53:46;;;;;;;25.65;6.57;;;;;;;;;;5096342;28;20046;-93
2021/12/30 12:56:13;;;;;;;35.47;6.65;;;;;;;;;;5094358;28;20127;-92
2021/12/30 12:58:44;;;;;;;28.77;6.53;;;;;;;;;;5095056;28;20479;-92
2021/12/30 13:01:12;;;;;;;32.33;6.93;;;;;;;;;;5096869;28;20071;-90
2021/12/30 13:03:38;;;;;;;26.92;7.13;;;;;;;;;;5094193;28;20048;-91
2021/12/30 13:06:09;;;;;;;25.33;6.43;;;;;;;;;;5095795;28;20088;-88
2021/12/30 13:08:37;;;;;;;32.13;6.90;;;;;;;;;;5095884;28;20119;-93
2021/12/30 13:11:04;;;;;;;26.00;6.70;;;;;;;;;;5096233;28;20032;-90
2021/12/30 13:13:32;;;;;;;29.40;6.45;;;;;;;;;;5094950;28;20043;-92
2021/12/30 13:15:59;;;;;;;30.67;6.82;;;;;;;;;;5076275;28;20075;-92
2021/12/30 13:18:25;;;;;;;32.85;6.93;;;;;;;;;;5094938;28;20055;-92
2021/12/30 13:20:51;;;;;;;30.38;7.47;;;;;;;;;;5094664;28;20491;-92
2021/12/30 13:23:32;;;;;;;22.13;6.78;;;;;;;;;;5093731;28;20052;-93
2021/12/30 13:26:03;;;;;;;24.80;6.22;;;;;;;;;;5092475;28;20083;-92
2021/12/30 13:28:29;;;;;;;28.00;6.65;;;;;;;;;;5092476;28;20044;-92
2021/12/30 13:31:09;;;;;;;36.20;7.40;;;;;;;;;;5093773;28;20040;-90
2021/12/30 13:33:35;;;;;;;34.03;6.65;;;;;;;;;;5092602;28;20218;-91
2021/12/30 13:36:11;;;;;;;28.70;6.18;;;;;;;;;;5092613;28;20078;-91
2021/12/30 13:38:37;;;;;;;26.65;7.00;;;;;;;;;;5093177;28;20044;-88
2021/12/30 13:41:11;;;;;;;24.52;6.85;;;;;;;;;;5096682;28;20482;-91
2021/12/30 13:43:37;;;;;;;33.58;6.30;;;;;;;;;;5096360;28;20473;-91
2021/12/30 13:46:03;;;;;;;29.85;6.50;;;;;;;;;;5092726;28;20123;-89
2021/12/30 13:48:31;;;;;;;31.73;7.22;;;;;;;;;;5093765;28;20070;-89
2021/12/30 13:50:59;;;;;;;34.28;7.43;;;;;;;;;;5093140;28;20080;-91
2021/12/30 13:53:30;;;;;;;29.17;7.28;;;;;;;;;;5093436;28;20173;-89
2021/12/30 13:56:00;;;;;;;25.33;7.43;;;;;;;;;;5097573;28;20387;-90
2021/12/30 13:58:29;;;;;;;33.30;7.57;;;;;;;;;;5095944;28;20487;-91
2021/12/30 14:01:06;;;;;;;30.42;7.80;;;;;;;;;;5095994;28;20047;-90
2021/12/30 14:03:33;;;;;;;30.77;7.88;;;;;;;;;;5095828;28;20036;-88
2021/12/30 14:06:07;;;;;;;35.08;7.30;;;;;;;;;;5095689;28;20245;-88
2021/12/30 14:08:33;;;;;;;37.22;7.65;;;;;;;;;;5096669;28;20040;-88
2021/12/30 14:11:00;;;;;;;34.17;7.47;;;;;;;;;;5095565;28;20055;-88
2021/12/30 14:13:40;;;;;;;30.05;7.60;;;;;;;;;;5095183;28;20078;-88
2021/12/30 14:16:10;;;;;;;33.17;7.18;;;;;;;;;;5096767;28;20050;-90
2021/12/30 14:18:38;;;;;;;31.33;7.00;;;;;;;;;;5095546;28;20126;-92
2021/12/30 14:21:04;;;;;;;35.90;10.15;;;;;;;;;;5097109;28;20198;-90
2021/12/30 14:23:31;;;;;;;27.88;7.53;;;;;;;;;;5095286;28;20056;-92
2021/12/30 14:26:07;;;;;;;34.95;8.63;;;;;;;;;;5095571;28;20052;-91
2021/12/30 14:28:33;;;;;;;36.95;8.55;;;;;;;;;;5096839;28;20081;-92
2021/12/30 14:30:59;;;;;;;39.88;8.73;;;;;;;;;;5095868;28;20079;-92